sensor_id;sensor_type;location;lat;lon;timestamp;P1;durP1;ratioP1;P2;durP2;ratioP2
47053;SDS011;32811;52.382;5.270;2024-03-22T00:01:49;29.75;;;19.83;;
47053;SDS011;32811;52.382;5.270;2024-03-22T00:04:15;29.83;;;19.30;;
47053;SDS011;32811;52.382;5.270;2024-03-22T00:06:42;32.08;;;21.10;;
47053;SDS011;32811;52.382;5.270;2024-03-22T00:09:08;34.08;;;21.35;;
47053;SDS011;32811;52.382;5.270;2024-03-22T00:11:34;34.10;;;20.10;;
47053;SDS011;32811;52.382;5.270;2024-03-22T00:14:01;35.60;;;20.45;;
47053;SDS011;32811;52.382;5.270;2024-03-22T00:16:27;39.33;;;22.08;;
47053;SDS011;32811;52.382;5.270;2024-03-22T00:18:52;37.85;;;21.75;;
47053;SDS011;32811;52.382;5.270;2024-03-22T00:21:18;42.08;;;21.73;;
47053;SDS011;32811;52.382;5.270;2024-03-22T00:23:44;31.83;;;21.15;;
47053;SDS011;32811;52.382;5.270;2024-03-22T00:26:10;34.45;;;21.88;;
47053;SDS011;32811;52.382;5.270;2024-03-22T00:28:36;34.05;;;21.58;;
47053;SDS011;32811;52.382;5.270;2024-03-22T00:31:02;40.88;;;23.75;;
47053;SDS011;32811;52.382;5.270;2024-03-22T00:33:27;36.30;;;22.20;;
47053;SDS011;32811;52.382;5.270;2024-03-22T00:35:53;34.33;;;20.63;;
47053;SDS011;32811;52.382;5.270;2024-03-22T00:38:18;38.28;;;24.00;;
47053;SDS011;32811;52.382;5.270;2024-03-22T00:40:44;36.15;;;22.52;;
47053;SDS011;32811;52.382;5.270;2024-03-22T00:43:10;39.45;;;24.42;;
47053;SDS011;32811;52.382;5.270;2024-03-22T00:45:35;38.67;;;23.20;;
47053;SDS011;32811;52.382;5.270;2024-03-22T00:48:01;32.78;;;23.00;;
47053;SDS011;32811;52.382;5.270;2024-03-22T00:50:26;39.38;;;23.02;;
47053;SDS011;32811;52.382;5.270;2024-03-22T00:52:53;34.08;;;21.92;;
47053;SDS011;32811;52.382;5.270;2024-03-22T00:55:22;41.40;;;24.23;;
47053;SDS011;32811;52.382;5.270;2024-03-22T00:57:48;40.13;;;23.45;;
47053;SDS011;32811;52.382;5.270;2024-03-22T01:00:14;42.55;;;23.35;;
47053;SDS011;32811;52.382;5.270;2024-03-22T01:02:41;44.25;;;24.75;;
47053;SDS011;32811;52.382;5.270;2024-03-22T01:05:06;44.50;;;24.55;;
47053;SDS011;32811;52.382;5.270;2024-03-22T01:07:32;42.38;;;23.08;;
47053;SDS011;32811;52.382;5.270;2024-03-22T01:09:58;44.33;;;25.30;;
47053;SDS011;32811;52.382;5.270;2024-03-22T01:12:23;44.13;;;23.63;;
47053;SDS011;32811;52.382;5.270;2024-03-22T01:14:49;39.13;;;24.35;;
47053;SDS011;32811;52.382;5.270;2024-03-22T01:17:14;39.75;;;23.13;;
47053;SDS011;32811;52.382;5.270;2024-03-22T01:19:40;40.50;;;23.95;;
47053;SDS011;32811;52.382;5.270;2024-03-22T01:22:06;39.15;;;23.77;;
47053;SDS011;32811;52.382;5.270;2024-03-22T01:24:32;46.75;;;24.10;;
47053;SDS011;32811;52.382;5.270;2024-03-22T01:26:57;42.95;;;22.38;;
47053;SDS011;32811;52.382;5.270;2024-03-22T01:29:23;38.70;;;22.20;;
47053;SDS011;32811;52.382;5.270;2024-03-22T01:31:48;43.08;;;25.13;;
47053;SDS011;32811;52.382;5.270;2024-03-22T01:34:14;41.70;;;22.25;;
47053;SDS011;32811;52.382;5.270;2024-03-22T01:36:40;39.78;;;23.75;;
47053;SDS011;32811;52.382;5.270;2024-03-22T01:39:06;44.83;;;25.15;;
47053;SDS011;32811;52.382;5.270;2024-03-22T01:41:31;49.13;;;24.02;;
47053;SDS011;32811;52.382;5.270;2024-03-22T01:43:58;43.03;;;22.77;;
47053;SDS011;32811;52.382;5.270;2024-03-22T01:46:23;39.40;;;23.63;;
47053;SDS011;32811;52.382;5.270;2024-03-22T01:48:49;44.67;;;24.50;;
47053;SDS011;32811;52.382;5.270;2024-03-22T01:51:15;46.38;;;23.38;;
47053;SDS011;32811;52.382;5.270;2024-03-22T01:53:41;45.15;;;23.05;;
47053;SDS011;32811;52.382;5.270;2024-03-22T01:56:07;49.17;;;24.83;;
47053;SDS011;32811;52.382;5.270;2024-03-22T01:58:33;42.50;;;24.55;;
47053;SDS011;32811;52.382;5.270;2024-03-22T02:00:58;42.47;;;23.85;;
47053;SDS011;32811;52.382;5.270;2024-03-22T02:03:24;46.20;;;23.90;;
47053;SDS011;32811;52.382;5.270;2024-03-22T02:05:50;47.70;;;24.70;;
47053;SDS011;32811;52.382;5.270;2024-03-22T02:08:15;42.58;;;23.75;;
47053;SDS011;32811;52.382;5.270;2024-03-22T02:10:41;47.47;;;24.45;;
47053;SDS011;32811;52.382;5.270;2024-03-22T02:13:08;44.92;;;23.85;;
47053;SDS011;32811;52.382;5.270;2024-03-22T02:15:34;47.53;;;25.05;;
47053;SDS011;32811;52.382;5.270;2024-03-22T02:17:59;42.83;;;22.52;;
47053;SDS011;32811;52.382;5.270;2024-03-22T02:20:25;42.72;;;22.05;;
47053;SDS011;32811;52.382;5.270;2024-03-22T02:22:50;43.25;;;22.88;;
47053;SDS011;32811;52.382;5.270;2024-03-22T02:25:16;45.45;;;22.98;;
47053;SDS011;32811;52.382;5.270;2024-03-22T02:27:42;41.63;;;21.70;;
47053;SDS011;32811;52.382;5.270;2024-03-22T02:30:08;44.05;;;22.17;;
47053;SDS011;32811;52.382;5.270;2024-03-22T02:32:34;43.40;;;23.10;;
47053;SDS011;32811;52.382;5.270;2024-03-22T02:34:59;49.88;;;23.58;;
47053;SDS011;32811;52.382;5.270;2024-03-22T02:37:25;44.60;;;22.25;;
47053;SDS011;32811;52.382;5.270;2024-03-22T02:39:50;39.53;;;20.58;;
47053;SDS011;32811;52.382;5.270;2024-03-22T02:42:16;51.72;;;21.70;;
47053;SDS011;32811;52.382;5.270;2024-03-22T02:44:42;51.15;;;22.77;;
47053;SDS011;32811;52.382;5.270;2024-03-22T02:47:10;43.30;;;21.35;;
47053;SDS011;32811;52.382;5.270;2024-03-22T02:49:38;42.67;;;20.30;;
47053;SDS011;32811;52.382;5.270;2024-03-22T02:52:04;42.17;;;22.00;;
47053;SDS011;32811;52.382;5.270;2024-03-22T02:54:30;45.80;;;20.40;;
47053;SDS011;32811;52.382;5.270;2024-03-22T02:56:56;38.10;;;19.58;;
47053;SDS011;32811;52.382;5.270;2024-03-22T02:59:21;42.63;;;20.15;;
47053;SDS011;32811;52.382;5.270;2024-03-22T03:01:47;48.28;;;21.98;;
47053;SDS011;32811;52.382;5.270;2024-03-22T03:04:12;46.80;;;23.17;;
47053;SDS011;32811;52.382;5.270;2024-03-22T03:06:38;46.58;;;22.30;;
47053;SDS011;32811;52.382;5.270;2024-03-22T03:09:03;46.95;;;23.00;;
47053;SDS011;32811;52.382;5.270;2024-03-22T03:11:36;42.78;;;22.05;;
47053;SDS011;32811;52.382;5.270;2024-03-22T03:14:03;46.88;;;22.00;;
47053;SDS011;32811;52.382;5.270;2024-03-22T03:16:29;41.78;;;20.52;;
47053;SDS011;32811;52.382;5.270;2024-03-22T03:18:54;42.95;;;23.42;;
47053;SDS011;32811;52.382;5.270;2024-03-22T03:21:20;45.35;;;22.33;;
47053;SDS011;32811;52.382;5.270;2024-03-22T03:23:46;49.53;;;22.73;;
47053;SDS011;32811;52.382;5.270;2024-03-22T03:26:11;42.25;;;21.50;;
47053;SDS011;32811;52.382;5.270;2024-03-22T03:28:37;45.35;;;20.92;;
47053;SDS011;32811;52.382;5.270;2024-03-22T03:31:02;49.47;;;22.58;;
47053;SDS011;32811;52.382;5.270;2024-03-22T03:33:28;39.63;;;21.88;;
47053;SDS011;32811;52.382;5.270;2024-03-22T03:35:54;39.97;;;20.92;;
47053;SDS011;32811;52.382;5.270;2024-03-22T03:38:19;42.47;;;21.50;;
47053;SDS011;32811;52.382;5.270;2024-03-22T03:40:46;38.40;;;21.13;;
47053;SDS011;32811;52.382;5.270;2024-03-22T03:43:12;37.75;;;23.17;;
47053;SDS011;32811;52.382;5.270;2024-03-22T03:45:37;39.60;;;20.70;;
47053;SDS011;32811;52.382;5.270;2024-03-22T03:48:03;39.55;;;20.77;;
47053;SDS011;32811;52.382;5.270;2024-03-22T03:50:29;35.00;;;20.05;;
47053;SDS011;32811;52.382;5.270;2024-03-22T03:52:55;43.35;;;21.65;;
47053;SDS011;32811;52.382;5.270;2024-03-22T03:55:21;41.92;;;20.27;;
47053;SDS011;32811;52.382;5.270;2024-03-22T03:57:49;39.35;;;21.83;;
47053;SDS011;32811;52.382;5.270;2024-03-22T04:00:15;29.95;;;17.33;;
47053;SDS011;32811;52.382;5.270;2024-03-22T04:02:41;33.90;;;18.40;;
47053;SDS011;32811;52.382;5.270;2024-03-22T04:05:06;38.50;;;18.35;;
47053;SDS011;32811;52.382;5.270;2024-03-22T04:07:32;28.45;;;19.15;;
47053;SDS011;32811;52.382;5.270;2024-03-22T04:09:58;31.65;;;18.10;;
47053;SDS011;32811;52.382;5.270;2024-03-22T04:12:25;31.70;;;18.08;;
47053;SDS011;32811;52.382;5.270;2024-03-22T04:14:52;34.28;;;18.70;;
47053;SDS011;32811;52.382;5.270;2024-03-22T04:17:18;31.08;;;18.25;;
47053;SDS011;32811;52.382;5.270;2024-03-22T04:19:43;35.47;;;18.27;;
47053;SDS011;32811;52.382;5.270;2024-03-22T04:22:09;29.85;;;17.38;;
47053;SDS011;32811;52.382;5.270;2024-03-22T04:24:35;36.75;;;17.48;;
47053;SDS011;32811;52.382;5.270;2024-03-22T04:27:00;37.25;;;17.73;;
47053;SDS011;32811;52.382;5.270;2024-03-22T04:29:26;34.33;;;16.58;;
47053;SDS011;32811;52.382;5.270;2024-03-22T04:31:51;29.45;;;16.63;;
47053;SDS011;32811;52.382;5.270;2024-03-22T04:34:17;32.85;;;17.38;;
47053;SDS011;32811;52.382;5.270;2024-03-22T04:36:42;32.03;;;15.93;;
47053;SDS011;32811;52.382;5.270;2024-03-22T04:39:08;27.67;;;17.10;;
47053;SDS011;32811;52.382;5.270;2024-03-22T04:41:35;27.33;;;14.40;;
47053;SDS011;32811;52.382;5.270;2024-03-22T04:44:00;29.40;;;17.63;;
47053;SDS011;32811;52.382;5.270;2024-03-22T04:46:26;26.55;;;15.25;;
47053;SDS011;32811;52.382;5.270;2024-03-22T04:48:52;27.05;;;14.77;;
47053;SDS011;32811;52.382;5.270;2024-03-22T04:51:17;29.02;;;16.23;;
47053;SDS011;32811;52.382;5.270;2024-03-22T04:53:43;34.30;;;15.25;;
47053;SDS011;32811;52.382;5.270;2024-03-22T04:56:09;33.40;;;14.07;;
47053;SDS011;32811;52.382;5.270;2024-03-22T04:58:34;28.17;;;14.73;;
47053;SDS011;32811;52.382;5.270;2024-03-22T05:01:00;27.02;;;16.25;;
47053;SDS011;32811;52.382;5.270;2024-03-22T05:03:26;32.92;;;14.18;;
47053;SDS011;32811;52.382;5.270;2024-03-22T05:05:51;30.50;;;16.08;;
47053;SDS011;32811;52.382;5.270;2024-03-22T05:08:17;39.90;;;15.30;;
47053;SDS011;32811;52.382;5.270;2024-03-22T05:10:43;27.23;;;12.75;;
47053;SDS011;32811;52.382;5.270;2024-03-22T05:13:09;26.35;;;14.48;;
47053;SDS011;32811;52.382;5.270;2024-03-22T05:15:34;23.73;;;14.40;;
47053;SDS011;32811;52.382;5.270;2024-03-22T05:18:00;23.50;;;13.68;;
47053;SDS011;32811;52.382;5.270;2024-03-22T05:20:26;24.25;;;13.80;;
47053;SDS011;32811;52.382;5.270;2024-03-22T05:22:54;23.77;;;12.95;;
47053;SDS011;32811;52.382;5.270;2024-03-22T05:25:20;23.85;;;12.13;;
47053;SDS011;32811;52.382;5.270;2024-03-22T05:27:45;29.70;;;14.55;;
47053;SDS011;32811;52.382;5.270;2024-03-22T05:30:11;26.70;;;11.55;;
47053;SDS011;32811;52.382;5.270;2024-03-22T05:32:38;27.52;;;12.82;;
47053;SDS011;32811;52.382;5.270;2024-03-22T05:35:04;30.45;;;12.68;;
47053;SDS011;32811;52.382;5.270;2024-03-22T05:37:30;33.17;;;13.93;;
47053;SDS011;32811;52.382;5.270;2024-03-22T05:39:56;23.55;;;11.70;;
47053;SDS011;32811;52.382;5.270;2024-03-22T05:42:21;19.73;;;11.25;;
47053;SDS011;32811;52.382;5.270;2024-03-22T05:44:47;23.80;;;12.25;;
47053;SDS011;32811;52.382;5.270;2024-03-22T05:47:13;29.88;;;13.00;;
47053;SDS011;32811;52.382;5.270;2024-03-22T05:49:38;24.60;;;11.27;;
47053;SDS011;32811;52.382;5.270;2024-03-22T05:52:04;29.95;;;11.55;;
47053;SDS011;32811;52.382;5.270;2024-03-22T05:54:30;24.27;;;10.77;;
47053;SDS011;32811;52.382;5.270;2024-03-22T05:56:56;21.15;;;10.57;;
47053;SDS011;32811;52.382;5.270;2024-03-22T05:59:22;24.40;;;10.23;;
47053;SDS011;32811;52.382;5.270;2024-03-22T06:01:48;28.63;;;10.43;;
47053;SDS011;32811;52.382;5.270;2024-03-22T06:04:13;27.10;;;10.60;;
47053;SDS011;32811;52.382;5.270;2024-03-22T06:06:39;21.33;;;9.30;;
47053;SDS011;32811;52.382;5.270;2024-03-22T06:09:05;20.90;;;9.15;;
47053;SDS011;32811;52.382;5.270;2024-03-22T06:11:35;25.73;;;9.73;;
47053;SDS011;32811;52.382;5.270;2024-03-22T06:14:00;20.08;;;8.43;;
47053;SDS011;32811;52.382;5.270;2024-03-22T06:16:26;22.55;;;9.85;;
47053;SDS011;32811;52.382;5.270;2024-03-22T06:18:52;28.88;;;10.13;;
47053;SDS011;32811;52.382;5.270;2024-03-22T06:21:17;22.20;;;8.48;;
47053;SDS011;32811;52.382;5.270;2024-03-22T06:23:51;17.45;;;8.48;;
47053;SDS011;32811;52.382;5.270;2024-03-22T06:26:17;21.95;;;8.45;;
47053;SDS011;32811;52.382;5.270;2024-03-22T06:28:43;22.98;;;9.60;;
47053;SDS011;32811;52.382;5.270;2024-03-22T06:31:09;19.92;;;8.40;;
47053;SDS011;32811;52.382;5.270;2024-03-22T06:33:34;24.27;;;8.15;;
47053;SDS011;32811;52.382;5.270;2024-03-22T06:36:00;17.38;;;8.13;;
47053;SDS011;32811;52.382;5.270;2024-03-22T06:38:26;19.58;;;8.95;;
47053;SDS011;32811;52.382;5.270;2024-03-22T06:40:52;20.98;;;9.02;;
47053;SDS011;32811;52.382;5.270;2024-03-22T06:43:17;18.48;;;8.35;;
47053;SDS011;32811;52.382;5.270;2024-03-22T06:45:43;17.92;;;8.00;;
47053;SDS011;32811;52.382;5.270;2024-03-22T06:48:09;16.05;;;6.95;;
47053;SDS011;32811;52.382;5.270;2024-03-22T06:50:34;17.48;;;8.23;;
47053;SDS011;32811;52.382;5.270;2024-03-22T06:53:00;17.05;;;7.15;;
47053;SDS011;32811;52.382;5.270;2024-03-22T06:55:25;21.00;;;7.90;;
47053;SDS011;32811;52.382;5.270;2024-03-22T06:57:51;19.30;;;7.28;;
47053;SDS011;32811;52.382;5.270;2024-03-22T07:00:17;18.60;;;7.80;;
47053;SDS011;32811;52.382;5.270;2024-03-22T07:02:44;20.92;;;8.02;;
47053;SDS011;32811;52.382;5.270;2024-03-22T07:05:10;17.38;;;7.13;;
47053;SDS011;32811;52.382;5.270;2024-03-22T07:07:36;22.50;;;9.15;;
47053;SDS011;32811;52.382;5.270;2024-03-22T07:10:02;15.68;;;7.43;;
47053;SDS011;32811;52.382;5.270;2024-03-22T07:12:30;16.05;;;7.50;;
47053;SDS011;32811;52.382;5.270;2024-03-22T07:14:59;20.83;;;8.02;;
47053;SDS011;32811;52.382;5.270;2024-03-22T07:17:25;18.88;;;5.85;;
47053;SDS011;32811;52.382;5.270;2024-03-22T07:19:51;17.88;;;7.05;;
47053;SDS011;32811;52.382;5.270;2024-03-22T07:22:17;21.55;;;7.28;;
47053;SDS011;32811;52.382;5.270;2024-03-22T07:24:43;19.33;;;6.43;;
47053;SDS011;32811;52.382;5.270;2024-03-22T07:27:09;19.65;;;6.57;;
47053;SDS011;32811;52.382;5.270;2024-03-22T07:29:35;10.48;;;4.88;;
47053;SDS011;32811;52.382;5.270;2024-03-22T07:32:00;14.10;;;6.40;;
47053;SDS011;32811;52.382;5.270;2024-03-22T07:34:26;22.55;;;6.80;;
47053;SDS011;32811;52.382;5.270;2024-03-22T07:36:52;16.67;;;6.13;;
47053;SDS011;32811;52.382;5.270;2024-03-22T07:39:18;19.10;;;5.78;;
47053;SDS011;32811;52.382;5.270;2024-03-22T07:41:44;18.88;;;7.15;;
47053;SDS011;32811;52.382;5.270;2024-03-22T07:44:09;15.10;;;6.13;;
47053;SDS011;32811;52.382;5.270;2024-03-22T07:46:36;16.13;;;6.32;;
47053;SDS011;32811;52.382;5.270;2024-03-22T07:49:01;20.45;;;8.70;;
47053;SDS011;32811;52.382;5.270;2024-03-22T07:51:29;16.77;;;6.07;;
47053;SDS011;32811;52.382;5.270;2024-03-22T07:53:55;20.77;;;5.60;;
47053;SDS011;32811;52.382;5.270;2024-03-22T07:56:21;15.75;;;5.63;;
47053;SDS011;32811;52.382;5.270;2024-03-22T07:58:47;9.45;;;5.80;;
47053;SDS011;32811;52.382;5.270;2024-03-22T08:01:12;13.60;;;5.75;;
47053;SDS011;32811;52.382;5.270;2024-03-22T08:03:38;14.60;;;5.90;;
47053;SDS011;32811;52.382;5.270;2024-03-22T08:06:03;11.13;;;5.05;;
47053;SDS011;32811;52.382;5.270;2024-03-22T08:08:29;20.45;;;5.65;;
47053;SDS011;32811;52.382;5.270;2024-03-22T08:10:55;11.18;;;5.63;;
47053;SDS011;32811;52.382;5.270;2024-03-22T08:13:20;19.98;;;6.47;;
47053;SDS011;32811;52.382;5.270;2024-03-22T08:15:46;15.30;;;5.65;;
47053;SDS011;32811;52.382;5.270;2024-03-22T08:18:12;14.63;;;5.60;;
47053;SDS011;32811;52.382;5.270;2024-03-22T08:20:38;13.85;;;5.18;;
47053;SDS011;32811;52.382;5.270;2024-03-22T08:23:07;10.20;;;5.15;;
47053;SDS011;32811;52.382;5.270;2024-03-22T08:25:33;18.00;;;5.85;;
47053;SDS011;32811;52.382;5.270;2024-03-22T08:27:59;21.13;;;6.60;;
47053;SDS011;32811;52.382;5.270;2024-03-22T08:30:24;24.30;;;7.63;;
47053;SDS011;32811;52.382;5.270;2024-03-22T08:32:50;18.25;;;5.75;;
47053;SDS011;32811;52.382;5.270;2024-03-22T08:35:16;16.80;;;6.50;;
47053;SDS011;32811;52.382;5.270;2024-03-22T08:37:42;12.73;;;5.72;;
47053;SDS011;32811;52.382;5.270;2024-03-22T08:40:08;15.05;;;6.03;;
47053;SDS011;32811;52.382;5.270;2024-03-22T08:42:35;14.27;;;8.05;;
47053;SDS011;32811;52.382;5.270;2024-03-22T08:45:01;15.27;;;7.47;;
47053;SDS011;32811;52.382;5.270;2024-03-22T08:47:29;10.93;;;5.82;;
47053;SDS011;32811;52.382;5.270;2024-03-22T08:49:55;7.97;;;5.43;;
47053;SDS011;32811;52.382;5.270;2024-03-22T08:52:23;12.63;;;5.80;;
47053;SDS011;32811;52.382;5.270;2024-03-22T08:54:50;12.82;;;6.18;;
47053;SDS011;32811;52.382;5.270;2024-03-22T08:57:16;15.43;;;6.95;;
47053;SDS011;32811;52.382;5.270;2024-03-22T08:59:41;15.35;;;6.30;;
47053;SDS011;32811;52.382;5.270;2024-03-22T09:02:07;11.52;;;5.68;;
47053;SDS011;32811;52.382;5.270;2024-03-22T09:04:33;8.88;;;5.45;;
47053;SDS011;32811;52.382;5.270;2024-03-22T09:06:58;9.02;;;5.55;;
47053;SDS011;32811;52.382;5.270;2024-03-22T09:09:24;17.27;;;6.45;;
47053;SDS011;32811;52.382;5.270;2024-03-22T09:11:49;16.73;;;6.43;;
47053;SDS011;32811;52.382;5.270;2024-03-22T09:14:15;13.88;;;5.82;;
47053;SDS011;32811;52.382;5.270;2024-03-22T09:16:42;11.25;;;6.20;;
47053;SDS011;32811;52.382;5.270;2024-03-22T09:19:08;13.60;;;7.18;;
47053;SDS011;32811;52.382;5.270;2024-03-22T09:21:33;12.55;;;6.95;;
47053;SDS011;32811;52.382;5.270;2024-03-22T09:23:59;13.50;;;7.22;;
47053;SDS011;32811;52.382;5.270;2024-03-22T09:26:24;9.23;;;5.82;;
47053;SDS011;32811;52.382;5.270;2024-03-22T09:28:50;16.58;;;6.07;;
47053;SDS011;32811;52.382;5.270;2024-03-22T09:31:16;15.20;;;6.10;;
47053;SDS011;32811;52.382;5.270;2024-03-22T09:33:42;19.23;;;7.05;;
47053;SDS011;32811;52.382;5.270;2024-03-22T09:36:08;22.30;;;8.27;;
47053;SDS011;32811;52.382;5.270;2024-03-22T09:38:34;14.75;;;6.80;;
47053;SDS011;32811;52.382;5.270;2024-03-22T09:41:00;14.00;;;6.43;;
47053;SDS011;32811;52.382;5.270;2024-03-22T09:43:30;14.43;;;6.78;;
47053;SDS011;32811;52.382;5.270;2024-03-22T09:45:57;14.23;;;7.28;;
47053;SDS011;32811;52.382;5.270;2024-03-22T09:48:23;14.75;;;7.10;;
47053;SDS011;32811;52.382;5.270;2024-03-22T09:50:50;9.75;;;5.78;;
47053;SDS011;32811;52.382;5.270;2024-03-22T09:53:20;15.30;;;7.20;;
47053;SDS011;32811;52.382;5.270;2024-03-22T09:55:47;13.75;;;5.30;;
47053;SDS011;32811;52.382;5.270;2024-03-22T09:58:14;8.70;;;5.07;;
47053;SDS011;32811;52.382;5.270;2024-03-22T10:00:42;8.80;;;5.50;;
47053;SDS011;32811;52.382;5.270;2024-03-22T10:03:08;7.47;;;5.22;;
47053;SDS011;32811;52.382;5.270;2024-03-22T10:05:35;7.78;;;4.93;;
47053;SDS011;32811;52.382;5.270;2024-03-22T10:08:02;8.00;;;5.28;;
47053;SDS011;32811;52.382;5.270;2024-03-22T10:10:28;9.82;;;4.90;;
47053;SDS011;32811;52.382;5.270;2024-03-22T10:12:53;9.88;;;4.70;;
47053;SDS011;32811;52.382;5.270;2024-03-22T10:15:19;11.82;;;5.28;;
47053;SDS011;32811;52.382;5.270;2024-03-22T10:17:45;8.82;;;5.15;;
47053;SDS011;32811;52.382;5.270;2024-03-22T10:20:14;5.15;;;3.70;;
47053;SDS011;32811;52.382;5.270;2024-03-22T10:22:43;8.27;;;3.92;;
47053;SDS011;32811;52.382;5.270;2024-03-22T10:25:13;7.18;;;4.10;;
47053;SDS011;32811;52.382;5.270;2024-03-22T10:27:39;6.38;;;4.38;;
47053;SDS011;32811;52.382;5.270;2024-03-22T10:30:08;5.20;;;3.38;;
47053;SDS011;32811;52.382;5.270;2024-03-22T10:32:35;7.20;;;4.20;;
47053;SDS011;32811;52.382;5.270;2024-03-22T10:35:02;7.22;;;4.80;;
47053;SDS011;32811;52.382;5.270;2024-03-22T10:37:35;8.70;;;4.50;;
47053;SDS011;32811;52.382;5.270;2024-03-22T10:40:01;8.32;;;3.63;;
47053;SDS011;32811;52.382;5.270;2024-03-22T10:42:35;6.47;;;4.03;;
47053;SDS011;32811;52.382;5.270;2024-03-22T10:45:02;10.27;;;4.47;;
47053;SDS011;32811;52.382;5.270;2024-03-22T10:47:29;10.90;;;4.28;;
47053;SDS011;32811;52.382;5.270;2024-03-22T10:52:37;7.57;;;3.50;;
47053;SDS011;32811;52.382;5.270;2024-03-22T10:55:06;6.57;;;3.78;;
47053;SDS011;32811;52.382;5.270;2024-03-22T10:57:36;4.03;;;3.05;;
47053;SDS011;32811;52.382;5.270;2024-03-22T11:00:08;5.30;;;3.78;;
47053;SDS011;32811;52.382;5.270;2024-03-22T11:02:37;6.07;;;3.97;;
47053;SDS011;32811;52.382;5.270;2024-03-22T11:05:04;7.50;;;3.72;;
47053;SDS011;32811;52.382;5.270;2024-03-22T11:07:31;5.68;;;3.53;;
47053;SDS011;32811;52.382;5.270;2024-03-22T11:09:57;4.72;;;3.42;;
47053;SDS011;32811;52.382;5.270;2024-03-22T11:12:24;5.10;;;3.45;;
47053;SDS011;32811;52.382;5.270;2024-03-22T11:14:51;5.78;;;3.40;;
47053;SDS011;32811;52.382;5.270;2024-03-22T11:17:18;3.75;;;3.28;;
47053;SDS011;32811;52.382;5.270;2024-03-22T11:19:43;3.83;;;2.50;;
47053;SDS011;32811;52.382;5.270;2024-03-22T11:22:09;4.78;;;3.30;;
47053;SDS011;32811;52.382;5.270;2024-03-22T11:24:39;4.60;;;3.03;;
47053;SDS011;32811;52.382;5.270;2024-03-22T11:27:06;3.97;;;3.38;;
47053;SDS011;32811;52.382;5.270;2024-03-22T11:29:32;5.93;;;3.22;;
47053;SDS011;32811;52.382;5.270;2024-03-22T11:31:59;5.13;;;3.25;;
47053;SDS011;32811;52.382;5.270;2024-03-22T11:34:25;3.85;;;3.13;;
47053;SDS011;32811;52.382;5.270;2024-03-22T11:36:51;4.35;;;3.67;;
47053;SDS011;32811;52.382;5.270;2024-03-22T11:39:19;5.50;;;4.63;;
47053;SDS011;32811;52.382;5.270;2024-03-22T11:41:44;5.70;;;3.85;;
47053;SDS011;32811;52.382;5.270;2024-03-22T11:44:14;5.22;;;3.78;;
47053;SDS011;32811;52.382;5.270;2024-03-22T11:46:41;6.30;;;4.15;;
47053;SDS011;32811;52.382;5.270;2024-03-22T11:49:07;10.25;;;4.95;;
47053;SDS011;32811;52.382;5.270;2024-03-22T11:51:33;5.35;;;4.25;;
47053;SDS011;32811;52.382;5.270;2024-03-22T11:53:58;5.93;;;4.38;;
47053;SDS011;32811;52.382;5.270;2024-03-22T11:56:28;7.43;;;4.88;;
47053;SDS011;32811;52.382;5.270;2024-03-22T11:59:00;6.80;;;5.15;;
47053;SDS011;32811;52.382;5.270;2024-03-22T12:01:26;8.27;;;4.95;;
47053;SDS011;32811;52.382;5.270;2024-03-22T12:03:52;8.35;;;6.13;;
47053;SDS011;32811;52.382;5.270;2024-03-22T12:06:19;7.55;;;5.85;;
47053;SDS011;32811;52.382;5.270;2024-03-22T12:08:45;8.93;;;5.70;;
47053;SDS011;32811;52.382;5.270;2024-03-22T12:11:11;9.73;;;6.57;;
47053;SDS011;32811;52.382;5.270;2024-03-22T12:13:37;12.20;;;6.47;;
47053;SDS011;32811;52.382;5.270;2024-03-22T12:16:03;12.20;;;7.13;;
47053;SDS011;32811;52.382;5.270;2024-03-22T12:18:29;10.75;;;7.55;;
47053;SDS011;32811;52.382;5.270;2024-03-22T12:20:55;12.40;;;7.85;;
47053;SDS011;32811;52.382;5.270;2024-03-22T12:23:21;10.60;;;7.88;;
47053;SDS011;32811;52.382;5.270;2024-03-22T12:25:46;11.32;;;7.53;;
47053;SDS011;32811;52.382;5.270;2024-03-22T12:28:12;9.93;;;6.72;;
47053;SDS011;32811;52.382;5.270;2024-03-22T12:30:39;15.40;;;7.85;;
47053;SDS011;32811;52.382;5.270;2024-03-22T12:33:05;12.50;;;7.18;;
47053;SDS011;32811;52.382;5.270;2024-03-22T12:35:35;18.15;;;8.13;;
47053;SDS011;32811;52.382;5.270;2024-03-22T12:38:05;10.35;;;8.10;;
47053;SDS011;32811;52.382;5.270;2024-03-22T12:40:30;13.65;;;7.25;;
47053;SDS011;32811;52.382;5.270;2024-03-22T12:42:58;13.65;;;8.23;;
47053;SDS011;32811;52.382;5.270;2024-03-22T12:45:24;11.48;;;7.30;;
47053;SDS011;32811;52.382;5.270;2024-03-22T12:47:49;16.45;;;8.05;;
47053;SDS011;32811;52.382;5.270;2024-03-22T12:50:15;12.50;;;8.93;;
47053;SDS011;32811;52.382;5.270;2024-03-22T12:52:41;17.38;;;7.72;;
47053;SDS011;32811;52.382;5.270;2024-03-22T12:55:07;14.43;;;7.97;;
47053;SDS011;32811;52.382;5.270;2024-03-22T12:57:32;14.10;;;7.32;;
47053;SDS011;32811;52.382;5.270;2024-03-22T12:59:58;17.27;;;9.15;;
47053;SDS011;32811;52.382;5.270;2024-03-22T13:02:24;17.10;;;9.45;;
47053;SDS011;32811;52.382;5.270;2024-03-22T13:04:51;13.07;;;8.75;;
47053;SDS011;32811;52.382;5.270;2024-03-22T13:07:19;13.27;;;7.90;;
47053;SDS011;32811;52.382;5.270;2024-03-22T13:09:45;17.92;;;8.05;;
47053;SDS011;32811;52.382;5.270;2024-03-22T13:12:11;22.25;;;9.85;;
47053;SDS011;32811;52.382;5.270;2024-03-22T13:14:36;15.02;;;8.18;;
47053;SDS011;32811;52.382;5.270;2024-03-22T13:17:02;18.23;;;7.70;;
47053;SDS011;32811;52.382;5.270;2024-03-22T13:19:27;15.85;;;7.78;;
47053;SDS011;32811;52.382;5.270;2024-03-22T13:21:53;15.63;;;6.95;;
47053;SDS011;32811;52.382;5.270;2024-03-22T13:24:19;18.98;;;10.20;;
47053;SDS011;32811;52.382;5.270;2024-03-22T13:26:44;15.13;;;9.68;;
47053;SDS011;32811;52.382;5.270;2024-03-22T13:29:10;14.20;;;7.82;;
47053;SDS011;32811;52.382;5.270;2024-03-22T13:31:37;19.55;;;9.30;;
47053;SDS011;32811;52.382;5.270;2024-03-22T13:34:03;15.48;;;7.43;;
47053;SDS011;32811;52.382;5.270;2024-03-22T13:36:29;14.70;;;6.78;;
47053;SDS011;32811;52.382;5.270;2024-03-22T13:38:58;15.32;;;6.63;;
47053;SDS011;32811;52.382;5.270;2024-03-22T13:41:23;16.30;;;5.43;;
47053;SDS011;32811;52.382;5.270;2024-03-22T13:43:49;13.75;;;4.95;;
47053;SDS011;32811;52.382;5.270;2024-03-22T13:46:15;13.57;;;4.45;;
47053;SDS011;32811;52.382;5.270;2024-03-22T13:48:43;13.35;;;5.72;;
47053;SDS011;32811;52.382;5.270;2024-03-22T13:51:08;12.43;;;4.38;;
47053;SDS011;32811;52.382;5.270;2024-03-22T13:53:35;13.32;;;4.18;;
47053;SDS011;32811;52.382;5.270;2024-03-22T13:56:02;16.45;;;4.57;;
47053;SDS011;32811;52.382;5.270;2024-03-22T13:58:28;9.50;;;4.50;;
47053;SDS011;32811;52.382;5.270;2024-03-22T14:00:53;10.27;;;3.65;;
47053;SDS011;32811;52.382;5.270;2024-03-22T14:03:19;13.55;;;3.72;;
47053;SDS011;32811;52.382;5.270;2024-03-22T14:05:45;10.60;;;3.47;;
47053;SDS011;32811;52.382;5.270;2024-03-22T14:08:10;12.90;;;3.80;;
47053;SDS011;32811;52.382;5.270;2024-03-22T14:10:36;16.58;;;5.13;;
47053;SDS011;32811;52.382;5.270;2024-03-22T14:13:03;8.43;;;3.63;;
47053;SDS011;32811;52.382;5.270;2024-03-22T14:15:29;9.20;;;3.40;;
47053;SDS011;32811;52.382;5.270;2024-03-22T14:17:57;13.88;;;4.47;;
47053;SDS011;32811;52.382;5.270;2024-03-22T14:20:23;13.60;;;3.78;;
47053;SDS011;32811;52.382;5.270;2024-03-22T14:22:50;11.02;;;3.28;;
47053;SDS011;32811;52.382;5.270;2024-03-22T14:25:16;9.65;;;3.10;;
47053;SDS011;32811;52.382;5.270;2024-03-22T14:27:43;18.98;;;4.53;;